sensor_id;sensor_type;location;lat;lon;timestamp;P1;durP1;ratioP1;P2;durP2;ratioP2
6420;SDS011;3243;50.958;7.012;2024-01-16T00:01:00;9.93;;;6.83;;
6420;SDS011;3243;50.958;7.012;2024-01-16T00:03:27;11.60;;;7.20;;
6420;SDS011;3243;50.958;7.012;2024-01-16T00:05:53;10.83;;;7.10;;
6420;SDS011;3243;50.958;7.012;2024-01-16T00:08:20;13.27;;;7.47;;
6420;SDS011;3243;50.958;7.012;2024-01-16T00:10:47;12.73;;;7.30;;
6420;SDS011;3243;50.958;7.012;2024-01-16T00:13:14;12.10;;;7.00;;
6420;SDS011;3243;50.958;7.012;2024-01-16T00:15:41;9.10;;;6.67;;
6420;SDS011;3243;50.958;7.012;2024-01-16T00:18:08;14.43;;;7.60;;
6420;SDS011;3243;50.958;7.012;2024-01-16T00:20:35;11.47;;;7.90;;
6420;SDS011;3243;50.958;7.012;2024-01-16T00:23:02;11.67;;;7.20;;
6420;SDS011;3243;50.958;7.012;2024-01-16T00:25:29;10.73;;;7.57;;
6420;SDS011;3243;50.958;7.012;2024-01-16T00:27:56;16.43;;;8.07;;
6420;SDS011;3243;50.958;7.012;2024-01-16T00:30:23;12.20;;;7.10;;
6420;SDS011;3243;50.958;7.012;2024-01-16T00:32:50;13.53;;;7.60;;
6420;SDS011;3243;50.958;7.012;2024-01-16T00:35:18;13.37;;;6.50;;
6420;SDS011;3243;50.958;7.012;2024-01-16T00:37:45;14.30;;;8.07;;
6420;SDS011;3243;50.958;7.012;2024-01-16T00:40:12;10.93;;;7.20;;
6420;SDS011;3243;50.958;7.012;2024-01-16T00:42:39;13.50;;;7.30;;
6420;SDS011;3243;50.958;7.012;2024-01-16T00:45:06;11.43;;;6.80;;
6420;SDS011;3243;50.958;7.012;2024-01-16T00:47:33;13.37;;;7.23;;
6420;SDS011;3243;50.958;7.012;2024-01-16T00:49:59;10.70;;;7.17;;
6420;SDS011;3243;50.958;7.012;2024-01-16T00:52:28;12.87;;;8.13;;
6420;SDS011;3243;50.958;7.012;2024-01-16T00:54:55;11.03;;;7.10;;
6420;SDS011;3243;50.958;7.012;2024-01-16T00:57:22;12.03;;;7.00;;
6420;SDS011;3243;50.958;7.012;2024-01-16T00:59:49;16.83;;;7.63;;
6420;SDS011;3243;50.958;7.012;2024-01-16T01:02:16;15.00;;;8.20;;
6420;SDS011;3243;50.958;7.012;2024-01-16T01:04:43;13.27;;;7.47;;
6420;SDS011;3243;50.958;7.012;2024-01-16T01:07:13;14.50;;;7.73;;
6420;SDS011;3243;50.958;7.012;2024-01-16T01:09:41;10.80;;;6.83;;
6420;SDS011;3243;50.958;7.012;2024-01-16T01:12:08;11.77;;;7.60;;
6420;SDS011;3243;50.958;7.012;2024-01-16T01:14:36;14.07;;;7.40;;
6420;SDS011;3243;50.958;7.012;2024-01-16T01:17:03;10.97;;;6.57;;
6420;SDS011;3243;50.958;7.012;2024-01-16T01:19:30;13.33;;;7.27;;
6420;SDS011;3243;50.958;7.012;2024-01-16T01:21:57;11.37;;;6.73;;
6420;SDS011;3243;50.958;7.012;2024-01-16T01:24:24;11.67;;;6.50;;
6420;SDS011;3243;50.958;7.012;2024-01-16T01:26:51;15.17;;;7.40;;
6420;SDS011;3243;50.958;7.012;2024-01-16T01:29:18;12.67;;;6.93;;
6420;SDS011;3243;50.958;7.012;2024-01-16T01:31:45;12.07;;;6.37;;
6420;SDS011;3243;50.958;7.012;2024-01-16T01:34:14;11.43;;;6.63;;
6420;SDS011;3243;50.958;7.012;2024-01-16T01:36:41;10.03;;;6.50;;
6420;SDS011;3243;50.958;7.012;2024-01-16T01:39:09;13.73;;;7.00;;
6420;SDS011;3243;50.958;7.012;2024-01-16T01:41:37;15.03;;;6.97;;
6420;SDS011;3243;50.958;7.012;2024-01-16T01:44:05;11.00;;;6.67;;
6420;SDS011;3243;50.958;7.012;2024-01-16T01:46:33;7.93;;;5.73;;
6420;SDS011;3243;50.958;7.012;2024-01-16T01:49:01;11.97;;;5.87;;
6420;SDS011;3243;50.958;7.012;2024-01-16T01:51:29;12.37;;;6.20;;
6420;SDS011;3243;50.958;7.012;2024-01-16T01:53:57;11.93;;;5.73;;
6420;SDS011;3243;50.958;7.012;2024-01-16T01:56:25;11.37;;;5.53;;
6420;SDS011;3243;50.958;7.012;2024-01-16T01:58:53;9.10;;;5.60;;
6420;SDS011;3243;50.958;7.012;2024-01-16T02:01:21;8.20;;;5.53;;
6420;SDS011;3243;50.958;7.012;2024-01-16T02:03:52;11.20;;;6.30;;
6420;SDS011;3243;50.958;7.012;2024-01-16T02:06:19;10.63;;;6.27;;
6420;SDS011;3243;50.958;7.012;2024-01-16T02:08:46;13.30;;;6.90;;
6420;SDS011;3243;50.958;7.012;2024-01-16T02:11:14;13.10;;;6.87;;
6420;SDS011;3243;50.958;7.012;2024-01-16T02:13:41;10.97;;;7.13;;
6420;SDS011;3243;50.958;7.012;2024-01-16T02:16:17;12.27;;;7.17;;
6420;SDS011;3243;50.958;7.012;2024-01-16T02:18:49;13.13;;;6.80;;
6420;SDS011;3243;50.958;7.012;2024-01-16T02:21:17;10.83;;;6.97;;
6420;SDS011;3243;50.958;7.012;2024-01-16T02:23:47;12.80;;;6.87;;
6420;SDS011;3243;50.958;7.012;2024-01-16T02:26:14;15.80;;;7.03;;
6420;SDS011;3243;50.958;7.012;2024-01-16T02:28:45;14.67;;;7.27;;
6420;SDS011;3243;50.958;7.012;2024-01-16T02:31:12;15.33;;;7.57;;
6420;SDS011;3243;50.958;7.012;2024-01-16T02:33:39;12.00;;;7.80;;
6420;SDS011;3243;50.958;7.012;2024-01-16T02:36:06;12.47;;;7.63;;
6420;SDS011;3243;50.958;7.012;2024-01-16T02:38:33;17.17;;;7.57;;
6420;SDS011;3243;50.958;7.012;2024-01-16T02:41:00;13.27;;;7.47;;
6420;SDS011;3243;50.958;7.012;2024-01-16T02:43:27;10.57;;;7.87;;
6420;SDS011;3243;50.958;7.012;2024-01-16T02:45:54;15.43;;;8.33;;
6420;SDS011;3243;50.958;7.012;2024-01-16T02:48:21;11.83;;;7.37;;
6420;SDS011;3243;50.958;7.012;2024-01-16T02:50:48;13.47;;;8.00;;
6420;SDS011;3243;50.958;7.012;2024-01-16T02:53:15;14.30;;;7.93;;
6420;SDS011;3243;50.958;7.012;2024-01-16T02:55:42;14.10;;;7.80;;
6420;SDS011;3243;50.958;7.012;2024-01-16T02:58:09;12.17;;;7.27;;
6420;SDS011;3243;50.958;7.012;2024-01-16T03:00:37;13.67;;;7.50;;
6420;SDS011;3243;50.958;7.012;2024-01-16T03:03:03;13.13;;;7.70;;
6420;SDS011;3243;50.958;7.012;2024-01-16T03:05:31;11.33;;;6.77;;
6420;SDS011;3243;50.958;7.012;2024-01-16T03:07:58;10.27;;;6.80;;
6420;SDS011;3243;50.958;7.012;2024-01-16T03:10:25;14.50;;;7.77;;
6420;SDS011;3243;50.958;7.012;2024-01-16T03:12:52;11.60;;;6.87;;
6420;SDS011;3243;50.958;7.012;2024-01-16T03:15:19;10.80;;;7.27;;
6420;SDS011;3243;50.958;7.012;2024-01-16T03:17:47;14.17;;;7.63;;
6420;SDS011;3243;50.958;7.012;2024-01-16T03:20:16;14.83;;;7.43;;
6420;SDS011;3243;50.958;7.012;2024-01-16T03:22:44;11.83;;;6.90;;
6420;SDS011;3243;50.958;7.012;2024-01-16T03:25:11;13.30;;;6.60;;
6420;SDS011;3243;50.958;7.012;2024-01-16T03:27:38;14.70;;;7.37;;
6420;SDS011;3243;50.958;7.012;2024-01-16T03:30:06;12.40;;;7.17;;
6420;SDS011;3243;50.958;7.012;2024-01-16T03:32:35;10.97;;;6.97;;
6420;SDS011;3243;50.958;7.012;2024-01-16T03:35:02;15.00;;;7.53;;
6420;SDS011;3243;50.958;7.012;2024-01-16T03:37:30;14.23;;;7.30;;
6420;SDS011;3243;50.958;7.012;2024-01-16T03:39:57;13.70;;;7.50;;
6420;SDS011;3243;50.958;7.012;2024-01-16T03:42:24;13.70;;;7.10;;
6420;SDS011;3243;50.958;7.012;2024-01-16T03:44:50;12.80;;;7.30;;
6420;SDS011;3243;50.958;7.012;2024-01-16T03:47:18;13.70;;;7.17;;
6420;SDS011;3243;50.958;7.012;2024-01-16T03:49:45;13.90;;;7.23;;
6420;SDS011;3243;50.958;7.012;2024-01-16T03:52:12;14.73;;;7.10;;
6420;SDS011;3243;50.958;7.012;2024-01-16T03:54:39;17.97;;;7.90;;
6420;SDS011;3243;50.958;7.012;2024-01-16T03:57:06;11.00;;;7.00;;
6420;SDS011;3243;50.958;7.012;2024-01-16T03:59:36;9.80;;;7.17;;
6420;SDS011;3243;50.958;7.012;2024-01-16T04:02:03;12.83;;;6.53;;
6420;SDS011;3243;50.958;7.012;2024-01-16T04:04:30;9.63;;;6.90;;
6420;SDS011;3243;50.958;7.012;2024-01-16T04:06:57;13.60;;;7.93;;
6420;SDS011;3243;50.958;7.012;2024-01-16T04:09:24;10.20;;;6.90;;
6420;SDS011;3243;50.958;7.012;2024-01-16T04:11:51;13.50;;;7.57;;
6420;SDS011;3243;50.958;7.012;2024-01-16T04:14:18;15.47;;;7.97;;
6420;SDS011;3243;50.958;7.012;2024-01-16T04:16:45;9.77;;;7.80;;
6420;SDS011;3243;50.958;7.012;2024-01-16T04:19:12;14.63;;;7.67;;
6420;SDS011;3243;50.958;7.012;2024-01-16T04:21:39;13.70;;;8.33;;
6420;SDS011;3243;50.958;7.012;2024-01-16T04:24:06;14.00;;;8.23;;
6420;SDS011;3243;50.958;7.012;2024-01-16T04:26:35;17.13;;;8.63;;
6420;SDS011;3243;50.958;7.012;2024-01-16T04:29:03;13.40;;;8.43;;
6420;SDS011;3243;50.958;7.012;2024-01-16T04:31:30;14.83;;;9.33;;
6420;SDS011;3243;50.958;7.012;2024-01-16T04:33:58;13.47;;;8.70;;
6420;SDS011;3243;50.958;7.012;2024-01-16T04:36:26;16.87;;;8.63;;
6420;SDS011;3243;50.958;7.012;2024-01-16T04:38:52;13.23;;;8.17;;
6420;SDS011;3243;50.958;7.012;2024-01-16T04:41:22;14.47;;;8.77;;
6420;SDS011;3243;50.958;7.012;2024-01-16T04:43:49;14.23;;;8.50;;
6420;SDS011;3243;50.958;7.012;2024-01-16T04:46:16;15.83;;;8.77;;
6420;SDS011;3243;50.958;7.012;2024-01-16T04:48:43;11.03;;;7.70;;
6420;SDS011;3243;50.958;7.012;2024-01-16T04:51:10;17.37;;;8.33;;
6420;SDS011;3243;50.958;7.012;2024-01-16T04:53:37;19.90;;;8.47;;
6420;SDS011;3243;50.958;7.012;2024-01-16T04:56:04;18.43;;;8.70;;
6420;SDS011;3243;50.958;7.012;2024-01-16T04:58:31;15.90;;;8.17;;
6420;SDS011;3243;50.958;7.012;2024-01-16T05:00:59;17.20;;;7.90;;
6420;SDS011;3243;50.958;7.012;2024-01-16T05:03:26;17.23;;;8.10;;
6420;SDS011;3243;50.958;7.012;2024-01-16T05:05:53;15.70;;;7.90;;
6420;SDS011;3243;50.958;7.012;2024-01-16T05:08:20;12.50;;;7.13;;
6420;SDS011;3243;50.958;7.012;2024-01-16T05:10:47;15.70;;;7.03;;
6420;SDS011;3243;50.958;7.012;2024-01-16T05:13:14;11.10;;;6.33;;
6420;SDS011;3243;50.958;7.012;2024-01-16T05:15:41;12.73;;;6.43;;
6420;SDS011;3243;50.958;7.012;2024-01-16T05:18:08;11.90;;;6.47;;
6420;SDS011;3243;50.958;7.012;2024-01-16T05:20:35;9.07;;;6.43;;
6420;SDS011;3243;50.958;7.012;2024-01-16T05:23:03;12.27;;;6.20;;
6420;SDS011;3243;50.958;7.012;2024-01-16T05:25:30;14.50;;;5.80;;
6420;SDS011;3243;50.958;7.012;2024-01-16T05:27:57;11.93;;;6.17;;
6420;SDS011;3243;50.958;7.012;2024-01-16T05:30:24;11.73;;;6.00;;
6420;SDS011;3243;50.958;7.012;2024-01-16T05:32:52;10.50;;;5.70;;
6420;SDS011;3243;50.958;7.012;2024-01-16T05:35:19;17.37;;;5.93;;
6420;SDS011;3243;50.958;7.012;2024-01-16T05:37:51;13.40;;;5.60;;
6420;SDS011;3243;50.958;7.012;2024-01-16T05:40:18;11.17;;;5.87;;
6420;SDS011;3243;50.958;7.012;2024-01-16T05:42:45;15.10;;;6.73;;
6420;SDS011;3243;50.958;7.012;2024-01-16T05:45:12;16.43;;;6.70;;
6420;SDS011;3243;50.958;7.012;2024-01-16T05:47:40;19.60;;;6.00;;
6420;SDS011;3243;50.958;7.012;2024-01-16T05:50:07;14.17;;;6.57;;
6420;SDS011;3243;50.958;7.012;2024-01-16T05:52:35;16.83;;;6.40;;
6420;SDS011;3243;50.958;7.012;2024-01-16T05:55:03;12.23;;;6.27;;
6420;SDS011;3243;50.958;7.012;2024-01-16T05:57:31;12.10;;;6.60;;
6420;SDS011;3243;50.958;7.012;2024-01-16T06:00:00;30.23;;;14.53;;
6420;SDS011;3243;50.958;7.012;2024-01-16T06:02:32;19.23;;;10.90;;
6420;SDS011;3243;50.958;7.012;2024-01-16T06:04:59;13.77;;;8.47;;
6420;SDS011;3243;50.958;7.012;2024-01-16T06:07:26;13.30;;;6.43;;
6420;SDS011;3243;50.958;7.012;2024-01-16T06:09:53;23.10;;;10.30;;
6420;SDS011;3243;50.958;7.012;2024-01-16T06:12:20;18.17;;;9.40;;
6420;SDS011;3243;50.958;7.012;2024-01-16T06:14:47;13.13;;;7.37;;
6420;SDS011;3243;50.958;7.012;2024-01-16T06:17:15;26.90;;;12.47;;
6420;SDS011;3243;50.958;7.012;2024-01-16T06:19:42;12.13;;;6.80;;
6420;SDS011;3243;50.958;7.012;2024-01-16T06:22:09;14.07;;;5.67;;
6420;SDS011;3243;50.958;7.012;2024-01-16T06:24:36;11.73;;;6.23;;
6420;SDS011;3243;50.958;7.012;2024-01-16T06:27:06;13.87;;;5.83;;
6420;SDS011;3243;50.958;7.012;2024-01-16T06:29:33;13.63;;;5.77;;
6420;SDS011;3243;50.958;7.012;2024-01-16T06:32:01;17.10;;;6.23;;
6420;SDS011;3243;50.958;7.012;2024-01-16T06:34:28;11.20;;;5.23;;
6420;SDS011;3243;50.958;7.012;2024-01-16T06:36:55;10.53;;;5.23;;
6420;SDS011;3243;50.958;7.012;2024-01-16T06:39:23;12.27;;;5.50;;
6420;SDS011;3243;50.958;7.012;2024-01-16T06:41:49;16.63;;;6.20;;
6420;SDS011;3243;50.958;7.012;2024-01-16T06:44:16;13.40;;;5.57;;
6420;SDS011;3243;50.958;7.012;2024-01-16T06:46:44;10.67;;;5.30;;
6420;SDS011;3243;50.958;7.012;2024-01-16T06:49:11;10.90;;;5.57;;
6420;SDS011;3243;50.958;7.012;2024-01-16T06:51:38;10.50;;;5.20;;
6420;SDS011;3243;50.958;7.012;2024-01-16T06:54:06;8.87;;;4.80;;
6420;SDS011;3243;50.958;7.012;2024-01-16T06:56:32;10.23;;;4.70;;
6420;SDS011;3243;50.958;7.012;2024-01-16T06:59:00;11.93;;;5.80;;
6420;SDS011;3243;50.958;7.012;2024-01-16T07:01:26;10.53;;;5.00;;
6420;SDS011;3243;50.958;7.012;2024-01-16T07:03:54;11.13;;;4.80;;
6420;SDS011;3243;50.958;7.012;2024-01-16T07:06:21;10.53;;;5.23;;
6420;SDS011;3243;50.958;7.012;2024-01-16T07:08:48;10.60;;;4.60;;
6420;SDS011;3243;50.958;7.012;2024-01-16T07:11:15;11.77;;;4.37;;
6420;SDS011;3243;50.958;7.012;2024-01-16T07:13:43;11.80;;;4.67;;
6420;SDS011;3243;50.958;7.012;2024-01-16T07:16:10;15.43;;;4.77;;
6420;SDS011;3243;50.958;7.012;2024-01-16T07:18:38;11.70;;;4.53;;
6420;SDS011;3243;50.958;7.012;2024-01-16T07:21:16;10.73;;;4.07;;
6420;SDS011;3243;50.958;7.012;2024-01-16T07:23:47;15.03;;;4.10;;
6420;SDS011;3243;50.958;7.012;2024-01-16T07:26:14;8.03;;;4.37;;
6420;SDS011;3243;50.958;7.012;2024-01-16T07:28:42;13.60;;;4.57;;
6420;SDS011;3243;50.958;7.012;2024-01-16T07:31:10;8.53;;;4.17;;
6420;SDS011;3243;50.958;7.012;2024-01-16T07:33:38;11.03;;;4.67;;
6420;SDS011;3243;50.958;7.012;2024-01-16T07:36:06;8.20;;;3.50;;
6420;SDS011;3243;50.958;7.012;2024-01-16T07:38:34;10.50;;;3.90;;
6420;SDS011;3243;50.958;7.012;2024-01-16T07:41:03;10.63;;;4.10;;
6420;SDS011;3243;50.958;7.012;2024-01-16T07:43:30;7.47;;;3.93;;
6420;SDS011;3243;50.958;7.012;2024-01-16T07:45:57;8.77;;;3.77;;
6420;SDS011;3243;50.958;7.012;2024-01-16T07:48:24;11.50;;;4.00;;
6420;SDS011;3243;50.958;7.012;2024-01-16T07:50:51;10.23;;;3.73;;
6420;SDS011;3243;50.958;7.012;2024-01-16T07:53:18;9.63;;;4.07;;
6420;SDS011;3243;50.958;7.012;2024-01-16T07:55:45;9.83;;;3.97;;
6420;SDS011;3243;50.958;7.012;2024-01-16T07:58:13;10.47;;;3.87;;
6420;SDS011;3243;50.958;7.012;2024-01-16T08:00:40;10.70;;;3.83;;
6420;SDS011;3243;50.958;7.012;2024-01-16T08:03:07;9.70;;;3.90;;
6420;SDS011;3243;50.958;7.012;2024-01-16T08:05:38;7.53;;;3.80;;
6420;SDS011;3243;50.958;7.012;2024-01-16T08:08:08;10.57;;;3.87;;
6420;SDS011;3243;50.958;7.012;2024-01-16T08:10:36;9.00;;;3.20;;
6420;SDS011;3243;50.958;7.012;2024-01-16T08:13:02;10.53;;;3.67;;
6420;SDS011;3243;50.958;7.012;2024-01-16T08:15:29;12.57;;;3.70;;
6420;SDS011;3243;50.958;7.012;2024-01-16T08:17:57;10.23;;;4.17;;
6420;SDS011;3243;50.958;7.012;2024-01-16T08:20:24;14.93;;;4.13;;
6420;SDS011;3243;50.958;7.012;2024-01-16T08:22:51;10.17;;;3.63;;
6420;SDS011;3243;50.958;7.012;2024-01-16T08:25:19;9.97;;;3.17;;
6420;SDS011;3243;50.958;7.012;2024-01-16T08:27:46;12.53;;;3.70;;
6420;SDS011;3243;50.958;7.012;2024-01-16T08:30:12;14.77;;;3.70;;
6420;SDS011;3243;50.958;7.012;2024-01-16T08:32:40;12.17;;;4.00;;
6420;SDS011;3243;50.958;7.012;2024-01-16T08:35:07;8.63;;;4.17;;
6420;SDS011;3243;50.958;7.012;2024-01-16T08:37:35;9.10;;;3.83;;
6420;SDS011;3243;50.958;7.012;2024-01-16T08:40:02;10.53;;;3.13;;
6420;SDS011;3243;50.958;7.012;2024-01-16T08:42:31;6.83;;;3.33;;
6420;SDS011;3243;50.958;7.012;2024-01-16T08:44:58;6.80;;;3.33;;
6420;SDS011;3243;50.958;7.012;2024-01-16T08:47:25;7.33;;;3.00;;
6420;SDS011;3243;50.958;7.012;2024-01-16T08:49:52;10.77;;;3.53;;
6420;SDS011;3243;50.958;7.012;2024-01-16T08:52:19;9.00;;;3.27;;
6420;SDS011;3243;50.958;7.012;2024-01-16T08:54:47;9.50;;;3.33;;
6420;SDS011;3243;50.958;7.012;2024-01-16T08:57:14;7.20;;;3.13;;
6420;SDS011;3243;50.958;7.012;2024-01-16T08:59:43;8.80;;;2.90;;
6420;SDS011;3243;50.958;7.012;2024-01-16T09:02:11;9.10;;;3.23;;
6420;SDS011;3243;50.958;7.012;2024-01-16T09:04:38;8.33;;;3.00;;
6420;SDS011;3243;50.958;7.012;2024-01-16T09:07:06;5.27;;;2.97;;
6420;SDS011;3243;50.958;7.012;2024-01-16T09:09:33;7.67;;;2.90;;
6420;SDS011;3243;50.958;7.012;2024-01-16T09:12:00;9.50;;;3.20;;
6420;SDS011;3243;50.958;7.012;2024-01-16T09:14:27;6.53;;;2.97;;
6420;SDS011;3243;50.958;7.012;2024-01-16T09:16:54;8.87;;;3.00;;
6420;SDS011;3243;50.958;7.012;2024-01-16T09:19:21;9.30;;;3.20;;
6420;SDS011;3243;50.958;7.012;2024-01-16T09:21:49;6.00;;;2.73;;
6420;SDS011;3243;50.958;7.012;2024-01-16T09:24:16;11.57;;;3.40;;
6420;SDS011;3243;50.958;7.012;2024-01-16T09:26:42;9.60;;;3.13;;
6420;SDS011;3243;50.958;7.012;2024-01-16T09:29:10;8.43;;;3.20;;
6420;SDS011;3243;50.958;7.012;2024-01-16T09:31:37;4.77;;;2.70;;
6420;SDS011;3243;50.958;7.012;2024-01-16T09:34:04;5.77;;;3.17;;
6420;SDS011;3243;50.958;7.012;2024-01-16T09:36:35;7.43;;;3.00;;
6420;SDS011;3243;50.958;7.012;2024-01-16T09:39:04;6.30;;;2.93;;
6420;SDS011;3243;50.958;7.012;2024-01-16T09:41:35;7.13;;;3.20;;
6420;SDS011;3243;50.958;7.012;2024-01-16T09:44:02;7.73;;;3.17;;
6420;SDS011;3243;50.958;7.012;2024-01-16T09:46:29;8.07;;;3.00;;
6420;SDS011;3243;50.958;7.012;2024-01-16T09:48:59;7.53;;;3.00;;
6420;SDS011;3243;50.958;7.012;2024-01-16T09:51:28;10.80;;;3.30;;
6420;SDS011;3243;50.958;7.012;2024-01-16T09:53:55;8.50;;;3.20;;
6420;SDS011;3243;50.958;7.012;2024-01-16T09:56:23;9.80;;;3.53;;
6420;SDS011;3243;50.958;7.012;2024-01-16T09:59:05;10.00;;;3.63;;
6420;SDS011;3243;50.958;7.012;2024-01-16T10:01:34;7.70;;;3.20;;
6420;SDS011;3243;50.958;7.012;2024-01-16T10:04:04;7.90;;;3.50;;
6420;SDS011;3243;50.958;7.012;2024-01-16T10:06:31;14.27;;;4.23;;
6420;SDS011;3243;50.958;7.012;2024-01-16T10:09:00;9.47;;;3.30;;
6420;SDS011;3243;50.958;7.012;2024-01-16T10:11:27;7.43;;;3.50;;
6420;SDS011;3243;50.958;7.012;2024-01-16T10:13:56;8.10;;;3.20;;
6420;SDS011;3243;50.958;7.012;2024-01-16T10:16:54;11.87;;;3.50;;
6420;SDS011;3243;50.958;7.012;2024-01-16T10:19:29;6.27;;;3.00;;
6420;SDS011;3243;50.958;7.012;2024-01-16T10:22:11;6.10;;;2.93;;
6420;SDS011;3243;50.958;7.012;2024-01-16T10:24:39;6.63;;;3.20;;
6420;SDS011;3243;50.958;7.012;2024-01-16T10:27:07;8.63;;;3.93;;
6420;SDS011;3243;50.958;7.012;2024-01-16T10:29:34;8.90;;;3.43;;
6420;SDS011;3243;50.958;7.012;2024-01-16T10:32:22;10.90;;;3.70;;
6420;SDS011;3243;50.958;7.012;2024-01-16T10:35:01;10.13;;;3.10;;
6420;SDS011;3243;50.958;7.012;2024-01-16T10:37:31;6.60;;;3.47;;
6420;SDS011;3243;50.958;7.012;2024-01-16T10:40:08;5.80;;;3.20;;
6420;SDS011;3243;50.958;7.012;2024-01-16T10:42:35;8.87;;;3.60;;
6420;SDS011;3243;50.958;7.012;2024-01-16T10:45:04;8.53;;;3.30;;
6420;SDS011;3243;50.958;7.012;2024-01-16T10:47:32;10.13;;;3.50;;
6420;SDS011;3243;50.958;7.012;2024-01-16T10:50:04;7.57;;;3.20;;
6420;SDS011;3243;50.958;7.012;2024-01-16T10:52:33;7.37;;;3.10;;
6420;SDS011;3243;50.958;7.012;2024-01-16T10:55:00;8.37;;;3.13;;
6420;SDS011;3243;50.958;7.012;2024-01-16T10:57:32;7.97;;;2.90;;
6420;SDS011;3243;50.958;7.012;2024-01-16T11:00:04;11.83;;;3.40;;
6420;SDS011;3243;50.958;7.012;2024-01-16T11:02:35;9.53;;;3.20;;
6420;SDS011;3243;50.958;7.012;2024-01-16T11:05:09;11.97;;;3.33;;
6420;SDS011;3243;50.958;7.012;2024-01-16T11:07:38;10.10;;;3.43;;
6420;SDS011;3243;50.958;7.012;2024-01-16T11:10:07;9.07;;;3.43;;
6420;SDS011;3243;50.958;7.012;2024-01-16T11:12:39;9.03;;;3.00;;
6420;SDS011;3243;50.958;7.012;2024-01-16T11:15:08;6.43;;;3.07;;
6420;SDS011;3243;50.958;7.012;2024-01-16T11:17:38;6.13;;;3.27;;
6420;SDS011;3243;50.958;7.012;2024-01-16T11:20:10;11.57;;;3.20;;
6420;SDS011;3243;50.958;7.012;2024-01-16T11:22:58;9.07;;;3.10;;
6420;SDS011;3243;50.958;7.012;2024-01-16T11:25:32;11.47;;;3.77;;
6420;SDS011;3243;50.958;7.012;2024-01-16T11:28:09;9.13;;;3.40;;
6420;SDS011;3243;50.958;7.012;2024-01-16T11:30:38;8.57;;;3.03;;
6420;SDS011;3243;50.958;7.012;2024-01-16T11:33:05;8.17;;;3.10;;
6420;SDS011;3243;50.958;7.012;2024-01-16T11:35:36;5.70;;;3.10;;
6420;SDS011;3243;50.958;7.012;2024-01-16T11:38:08;10.70;;;3.40;;
6420;SDS011;3243;50.958;7.012;2024-01-16T11:40:40;9.47;;;3.37;;
6420;SDS011;3243;50.958;7.012;2024-01-16T11:46:00;8.43;;;3.60;;
6420;SDS011;3243;50.958;7.012;2024-01-16T11:48:28;9.43;;;3.10;;
6420;SDS011;3243;50.958;7.012;2024-01-16T11:50:55;8.27;;;3.47;;
6420;SDS011;3243;50.958;7.012;2024-01-16T11:53:34;6.50;;;3.50;;
6420;SDS011;3243;50.958;7.012;2024-01-16T11:56:11;9.03;;;3.53;;
6420;SDS011;3243;50.958;7.012;2024-01-16T12:01:44;5.40;;;3.10;;
6420;SDS011;3243;50.958;7.012;2024-01-16T12:04:12;7.30;;;3.50;;
6420;SDS011;3243;50.958;7.012;2024-01-16T12:06:41;10.23;;;3.50;;
6420;SDS011;3243;50.958;7.012;2024-01-16T12:09:15;5.93;;;3.23;;
6420;SDS011;3243;50.958;7.012;2024-01-16T12:11:44;7.67;;;3.90;;
6420;SDS011;3243;50.958;7.012;2024-01-16T12:14:21;11.97;;;3.67;;
6420;SDS011;3243;50.958;7.012;2024-01-16T12:16:48;14.10;;;3.23;;
6420;SDS011;3243;50.958;7.012;2024-01-16T12:19:15;8.00;;;3.60;;
6420;SDS011;3243;50.958;7.012;2024-01-16T12:21:45;9.47;;;3.70;;
6420;SDS011;3243;50.958;7.012;2024-01-16T12:24:12;8.30;;;3.47;;
6420;SDS011;3243;50.958;7.012;2024-01-16T12:26:44;10.90;;;3.20;;
6420;SDS011;3243;50.958;7.012;2024-01-16T12:29:11;6.43;;;3.40;;
6420;SDS011;3243;50.958;7.012;2024-01-16T12:31:38;9.77;;;3.57;;
6420;SDS011;3243;50.958;7.012;2024-01-16T12:36:34;10.93;;;3.60;;
6420;SDS011;3243;50.958;7.012;2024-01-16T12:39:02;7.03;;;3.20;;
6420;SDS011;3243;50.958;7.012;2024-01-16T12:41:34;5.23;;;3.20;;
6420;SDS011;3243;50.958;7.012;2024-01-16T12:44:08;6.80;;;3.03;;
6420;SDS011;3243;50.958;7.012;2024-01-16T12:46:42;9.23;;;2.90;;
6420;SDS011;3243;50.958;7.012;2024-01-16T12:49:09;6.33;;;3.30;;
6420;SDS011;3243;50.958;7.012;2024-01-16T12:51:38;8.90;;;3.33;;
6420;SDS011;3243;50.958;7.012;2024-01-16T12:54:14;8.33;;;3.63;;
6420;SDS011;3243;50.958;7.012;2024-01-16T12:56:42;8.67;;;3.70;;
6420;SDS011;3243;50.958;7.012;2024-01-16T12:59:12;7.80;;;3.10;;
6420;SDS011;3243;50.958;7.012;2024-01-16T13:01:41;5.07;;;3.20;;
6420;SDS011;3243;50.958;7.012;2024-01-16T13:04:10;7.30;;;3.60;;
6420;SDS011;3243;50.958;7.012;2024-01-16T13:06:37;8.40;;;3.70;;
6420;SDS011;3243;50.958;7.012;2024-01-16T13:09:11;7.03;;;3.47;;
6420;SDS011;3243;50.958;7.012;2024-01-16T13:11:53;5.80;;;3.13;;
6420;SDS011;3243;50.958;7.012;2024-01-16T13:14:22;10.80;;;3.20;;
6420;SDS011;3243;50.958;7.012;2024-01-16T13:16:53;10.33;;;3.40;;
6420;SDS011;3243;50.958;7.012;2024-01-16T13:19:22;5.97;;;3.50;;
6420;SDS011;3243;50.958;7.012;2024-01-16T13:21:50;6.17;;;3.47;;
6420;SDS011;3243;50.958;7.012;2024-01-16T13:24:17;6.47;;;3.47;;
6420;SDS011;3243;50.958;7.012;2024-01-16T13:26:48;9.87;;;3.63;;
6420;SDS011;3243;50.958;7.012;2024-01-16T13:29:15;8.20;;;3.60;;
6420;SDS011;3243;50.958;7.012;2024-01-16T13:31:42;6.77;;;3.53;;
6420;SDS011;3243;50.958;7.012;2024-01-16T13:34:10;9.87;;;3.93;;
6420;SDS011;3243;50.958;7.012;2024-01-16T13:36:37;8.60;;;3.90;;
6420;SDS011;3243;50.958;7.012;2024-01-16T13:39:24;7.03;;;3.67;;
6420;SDS011;3243;50.958;7.012;2024-01-16T13:41:52;11.03;;;3.67;;
6420;SDS011;3243;50.958;7.012;2024-01-16T13:44:19;7.93;;;3.57;;
6420;SDS011;3243;50.958;7.012;2024-01-16T13:46:46;10.20;;;3.80;;
6420;SDS011;3243;50.958;7.012;2024-01-16T13:49:31;11.97;;;4.17;;
6420;SDS011;3243;50.958;7.012;2024-01-16T13:52:01;8.43;;;3.00;;
6420;SDS011;3243;50.958;7.012;2024-01-16T13:54:29;10.13;;;3.80;;
6420;SDS011;3243;50.958;7.012;2024-01-16T13:56:56;10.17;;;4.00;;
6420;SDS011;3243;50.958;7.012;2024-01-16T13:59:35;8.73;;;4.13;;
6420;SDS011;3243;50.958;7.012;2024-01-16T14:02:03;11.73;;;3.97;;
6420;SDS011;3243;50.958;7.012;2024-01-16T14:04:34;5.37;;;3.60;;
6420;SDS011;3243;50.958;7.012;2024-01-16T14:07:02;8.53;;;4.13;;
6420;SDS011;3243;50.958;7.012;2024-01-16T14:09:39;7.67;;;3.67;;
6420;SDS011;3243;50.958;7.012;2024-01-16T14:12:11;8.23;;;4.10;;
6420;SDS011;3243;50.958;7.012;2024-01-16T14:14:40;5.83;;;3.93;;
6420;SDS011;3243;50.958;7.012;2024-01-16T14:17:08;9.97;;;4.50;;
6420;SDS011;3243;50.958;7.012;2024-01-16T14:19:35;10.00;;;4.43;;
6420;SDS011;3243;50.958;7.012;2024-01-16T14:22:02;13.30;;;4.70;;
6420;SDS011;3243;50.958;7.012;2024-01-16T14:24:29;7.60;;;4.03;;
6420;SDS011;3243;50.958;7.012;2024-01-16T14:26:56;8.03;;;4.03;;
6420;SDS011;3243;50.958;7.012;2024-01-16T14:29:23;10.63;;;4.30;;
6420;SDS011;3243;50.958;7.012;2024-01-16T14:31:50;8.97;;;4.03;;
6420;SDS011;3243;50.958;7.012;2024-01-16T14:34:17;7.67;;;4.57;;
6420;SDS011;3243;50.958;7.012;2024-01-16T14:36:45;9.87;;;4.30;;
6420;SDS011;3243;50.958;7.012;2024-01-16T14:39:13;6.97;;;3.97;;
6420;SDS011;3243;50.958;7.012;2024-01-16T14:41:44;10.03;;;4.30;;
6420;SDS011;3243;50.958;7.012;2024-01-16T14:44:11;10.67;;;4.17;;
6420;SDS011;3243;50.958;7.012;2024-01-16T14:46:40;8.37;;;3.77;;
6420;SDS011;3243;50.958;7.012;2024-01-16T14:49:09;9.23;;;4.10;;
6420;SDS011;3243;50.958;7.012;2024-01-16T14:51:36;8.40;;;4.00;;
6420;SDS011;3243;50.958;7.012;2024-01-16T14:54:04;9.87;;;4.00;;
6420;SDS011;3243;50.958;7.012;2024-01-16T14:56:31;6.77;;;3.80;;
6420;SDS011;3243;50.958;7.012;2024-01-16T14:58:58;8.53;;;4.20;;
6420;SDS011;3243;50.958;7.012;2024-01-16T15:01:25;10.37;;;4.00;;
6420;SDS011;3243;50.958;7.012;2024-01-16T15:03:53;8.77;;;4.17;;
6420;SDS011;3243;50.958;7.012;2024-01-16T15:06:21;8.23;;;4.00;;
6420;SDS011;3243;50.958;7.012;2024-01-16T15:08:48;7.77;;;4.30;;
6420;SDS011;3243;50.958;7.012;2024-01-16T15:11:15;10.13;;;4.53;;
6420;SDS011;3243;50.958;7.012;2024-01-16T15:13:43;9.80;;;4.30;;
6420;SDS011;3243;50.958;7.012;2024-01-16T15:16:11;9.70;;;4.30;;
6420;SDS011;3243;50.958;7.012;2024-01-16T15:18:38;7.07;;;4.17;;
6420;SDS011;3243;50.958;7.012;2024-01-16T15:21:05;7.37;;;3.60;;
6420;SDS011;3243;50.958;7.012;2024-01-16T15:23:32;9.20;;;4.70;;